Terminal Aerodrome Forecast
Issued by NWS

Home | Current Version | Previous Version | Text Only | Print | Product List | Glossary Off
Versions: 1 2 3 4 5 6 7 8 9 10 11 12 13 14 15 16 17 18 19 20 21 22 23 24

866
FTUS42 KMHX 232357
TAFOAJ
TAF
KOAJ 232357Z 2400/2424 15004KT P6SM FEW011 BKN015
     FM240700 21003KT 5SM BR SCT050
     FM240900 21003KT 2SM BR BKN008
     FM241300 21007KT 5SM BR BKN030
     FM241400 21009KT P6SM SCT050
      AMD LTD TO CLD VIS AND WIND=

USA.gov is the U.S. government's official web portal to all federal, state and local government web resources and services.